Time;durP1;ratioP1;P1;durP2;ratioP2;P2;SDS_P1;SDS_P2;PMS_P1;PMS_P2;Temp;Humidity;BMP_temperature;BMP_pressure;BME280_temperature;BME280_humidity;BME280_pressure;Samples;Min_cycle;Max_cycle;Signal;HPM_P1;HPM_P2
2023/08/11 00:04:39;;;;;;;1.10;0.80;;;;;;;;;;20995319;28;20277;-76
2023/08/11 00:14:41;;;;;;;1.42;0.85;;;;;;;;;;20977871;28;20265;-77
2023/08/11 00:24:42;;;;;;;2.28;1.13;;;;;;;;;;20958665;28;20227;-77
2023/08/11 00:34:44;;;;;;;2.13;1.03;;;;;;;;;;20991882;28;20224;-76
2023/08/11 00:44:46;;;;;;;2.85;1.00;;;;;;;;;;20974268;28;20246;-76
2023/08/11 00:54:48;;;;;;;1.20;0.90;;;;;;;;;;20988803;28;20641;-76
2023/08/11 01:04:49;;;;;;;1.57;0.90;;;;;;;;;;20955630;28;20290;-76
2023/08/11 01:15:10;;;;;;;1.77;0.90;;;;;;;;;;20988431;28;20340;-76
2023/08/11 01:25:12;;;;;;;1.50;1.00;;;;;;;;;;20970159;28;20220;-76
2023/08/11 01:35:14;;;;;;;2.53;1.20;;;;;;;;;;20987945;28;20208;-76
2023/08/11 01:45:16;;;;;;;1.87;1.10;;;;;;;;;;20969355;28;20283;-76
2023/08/11 01:55:18;;;;;;;1.50;1.10;;;;;;;;;;20986556;28;20629;-76
2023/08/11 02:05:19;;;;;;;1.70;1.20;;;;;;;;;;20990217;22;20261;-72
2023/08/11 02:15:21;;;;;;;2.77;1.20;;;;;;;;;;20986531;28;20265;-71
2023/08/11 02:25:25;;;;;;;4.60;1.20;;;;;;;;;;20968180;28;20224;-72
2023/08/11 02:35:27;;;;;;;1.80;1.03;;;;;;;;;;20915516;28;20268;-72
2023/08/11 02:45:28;;;;;;;1.87;1.10;;;;;;;;;;20893794;28;20704;-75
2023/08/11 02:55:30;;;;;;;1.90;1.13;;;;;;;;;;20902032;28;20310;-76
2023/08/11 03:05:32;;;;;;;1.53;1.00;;;;;;;;;;20901589;28;20274;-76
2023/08/11 03:15:34;;;;;;;1.60;1.10;;;;;;;;;;20895293;28;20621;-76
2023/08/11 03:25:36;;;;;;;2.23;1.27;;;;;;;;;;20899994;28;20212;-75
2023/08/11 03:35:38;;;;;;;2.30;1.20;;;;;;;;;;20911794;28;20211;-75
2023/08/11 03:45:40;;;;;;;2.77;1.20;;;;;;;;;;20906876;28;20250;-75
2023/08/11 03:55:47;;;;;;;2.67;1.40;;;;;;;;;;20979680;28;20288;-76
2023/08/11 04:05:50;;;;;;;1.77;1.03;;;;;;;;;;20979021;28;20253;-77
2023/08/11 04:15:52;;;;;;;3.50;1.30;;;;;;;;;;20996313;28;20234;-75
2023/08/11 04:25:54;;;;;;;2.20;1.10;;;;;;;;;;20975664;28;20218;-77
2023/08/11 04:35:57;;;;;;;5.33;1.17;;;;;;;;;;20920021;28;20218;-77
2023/08/11 04:45:59;;;;;;;5.33;1.50;;;;;;;;;;20901728;28;20299;-76
2023/08/11 04:56:00;;;;;;;2.60;1.20;;;;;;;;;;20876866;28;20690;-74
2023/08/11 05:06:03;;;;;;;3.43;1.30;;;;;;;;;;20891404;28;20227;-74
2023/08/11 05:16:05;;;;;;;4.63;1.40;;;;;;;;;;20909529;28;20207;-74
2023/08/11 05:26:06;;;;;;;3.53;1.80;;;;;;;;;;20906656;28;20215;-75
2023/08/11 05:36:08;;;;;;;4.47;1.10;;;;;;;;;;20919080;28;20624;-76
2023/08/11 05:46:10;;;;;;;1.80;1.10;;;;;;;;;;20915455;28;20221;-75
2023/08/11 05:56:12;;;;;;;1.40;0.93;;;;;;;;;;20871069;28;20215;-75
2023/08/11 06:06:14;;;;;;;1.63;1.23;;;;;;;;;;20904173;28;20281;-76
2023/08/11 06:16:15;;;;;;;3.40;1.20;;;;;;;;;;20886376;28;20242;-75
2023/08/11 06:26:17;;;;;;;2.00;1.47;;;;;;;;;;20884653;28;20637;-75
2023/08/11 06:36:19;;;;;;;1.40;1.00;;;;;;;;;;20915956;28;20694;-75
2023/08/11 06:46:20;;;;;;;2.40;1.40;;;;;;;;;;20911509;28;20278;-75
2023/08/11 06:56:22;;;;;;;1.93;1.27;;;;;;;;;;20883807;28;20258;-75
2023/08/11 07:06:23;;;;;;;2.87;1.40;;;;;;;;;;20900910;28;20564;-76
2023/08/11 07:16:25;;;;;;;2.63;1.30;;;;;;;;;;20850576;28;20286;-76
2023/08/11 07:26:27;;;;;;;3.17;1.30;;;;;;;;;;20954305;28;20631;-73
2023/08/11 07:36:29;;;;;;;2.67;1.00;;;;;;;;;;20922220;28;20558;-73
2023/08/11 07:46:30;;;;;;;3.00;1.37;;;;;;;;;;20908749;28;20226;-73
2023/08/11 07:56:32;;;;;;;1.80;1.30;;;;;;;;;;20900166;28;20584;-73
2023/08/11 08:06:42;;;;;;;1.70;1.00;;;;;;;;;;20985733;22;20240;-77
2023/08/11 08:16:44;;;;;;;3.33;1.17;;;;;;;;;;21028053;28;20212;-76
2023/08/11 08:26:48;;;;;;;1.30;1.00;;;;;;;;;;21060313;28;20292;-77
2023/08/11 08:36:50;;;;;;;1.98;1.00;;;;;;;;;;21011806;28;20307;-76
2023/08/11 08:46:54;;;;;;;1.70;1.00;;;22.90;99.90;;;;;;20972329;28;20285;-76
2023/08/11 08:56:57;;;;;;;2.57;1.00;;;;;;;;;;20975879;28;20658;-77
2023/08/11 09:06:59;;;;;;;2.28;1.02;;;23.40;99.90;;;;;;20973236;28;20222;-77
2023/08/11 09:17:02;;;;;;;1.30;0.80;;;;;;;;;;20956725;28;20252;-77
2023/08/11 09:27:04;;;;;;;1.38;0.90;;;;;;;;;;20955075;28;20216;-77
2023/08/11 09:37:05;;;;;;;1.10;0.90;;;;;;;;;;20951704;28;20689;-76
2023/08/11 09:47:11;;;;;;;1.67;0.90;;;24.50;99.90;;;;;;20970695;28;20290;-76
2023/08/11 09:57:13;;;;;;;2.65;1.25;;;;;;;;;;20936675;28;20220;-76
2023/08/11 10:07:18;;;;;;;1.60;0.90;;;24.90;99.90;;;;;;20951751;28;20277;-76
2023/08/11 10:17:21;;;;;;;1.40;0.80;;;;;;;;;;20993880;28;20226;-76
2023/08/11 10:27:23;;;;;;;0.93;0.63;;;;;;;;;;21017800;28;20288;-76
2023/08/11 10:37:35;;;;;;;1.15;0.63;;;;;;;;;;20965179;28;20221;-75
2023/08/11 10:47:38;;;;;;;2.08;1.00;;;;;;;;;;20939571;28;20219;-76
2023/08/11 10:57:41;;;;;;;1.00;0.63;;;;;;;;;;20949691;28;20223;-76
2023/08/11 11:07:43;;;;;;;0.77;0.60;;;;;;;;;;20932496;28;20228;-75
2023/08/11 11:17:45;;;;;;;1.17;0.80;;;;;;;;;;20948282;28;20600;-75
2023/08/11 11:27:47;;;;;;;1.05;0.80;;;;;;;;;;20888828;28;20261;-74
2023/08/11 11:37:48;;;;;;;1.90;0.77;;;;;;;;;;20973915;28;20220;-75
2023/08/11 11:47:50;;;;;;;1.63;0.80;;;;;;;;;;20947052;28;20302;-75
2023/08/11 11:57:52;;;;;;;3.10;1.15;;;;;;;;;;20946565;28;20221;-75
2023/08/11 12:07:54;;;;;;;1.52;1.00;;;;;;;;;;20945225;28;20516;-75
2023/08/11 12:17:57;;;;;;;2.50;0.70;;;;;;;;;;20963582;28;20205;-76
2023/08/11 12:28:01;;;;;;;1.40;0.80;;;;;;;;;;20960762;28;20736;-75
2023/08/11 12:38:09;;;;;;;1.30;0.80;;;;;;;;;;20989452;28;20764;-76
2023/08/11 12:48:11;;;;;;;2.40;0.75;;;;;;;;;;20942081;28;20273;-75
2023/08/11 12:58:13;;;;;;;4.30;1.00;;;;;;;;;;20957971;28;20262;-74
2023/08/11 13:08:15;;;;;;;1.42;0.80;;;;;;;;;;20940768;28;20227;-75
2023/08/11 13:18:17;;;;;;;1.42;0.75;;;;;;;;;;20956986;28;20234;-74
2023/08/11 13:28:19;;;;;;;2.78;0.90;;;;;;;;;;20972207;28;20611;-73
2023/08/11 13:38:22;;;;;;;1.13;0.70;;;;;;;;;;20951881;28;20752;-72
2023/08/11 13:48:24;;;;;;;2.72;0.98;;;;;;;;;;20937346;28;20285;-73
2023/08/11 13:58:26;;;;;;;1.08;0.70;;;;;;;;;;20969042;28;20266;-71
2023/08/11 14:08:27;;;;;;;0.95;0.60;;;;;;;;;;20968692;22;20281;-75
2023/08/11 14:18:30;;;;;;;1.45;0.70;;;;;;;;;;20953544;28;20215;-75
2023/08/11 14:28:31;;;;;;;2.85;0.85;;;;;;;;;;20873959;28;20643;-76
2023/08/11 14:38:33;;;;;;;1.00;0.60;;;;;;;;;;20883269;28;20248;-74
2023/08/11 14:48:35;;;;;;;1.50;0.90;;;;;;;;;;20879503;28;20278;-75
2023/08/11 14:58:38;;;;;;;0.93;0.63;;;;;;;;;;20968227;28;20254;-76
2023/08/11 15:08:40;;;;;;;0.98;0.65;;;;;;;;;;20979320;28;20224;-76
2023/08/11 15:18:42;;;;;;;2.30;1.17;;;;;;;;;;20994440;28;20232;-75
2023/08/11 15:28:44;;;;;;;1.45;0.77;;;;;;;;;;20994182;28;20229;-77
2023/08/11 15:38:47;;;;;;;1.27;0.80;;;;;;;;;;20914702;28;20295;-75
2023/08/11 15:48:52;;;;;;;1.13;0.68;;;29.90;99.90;;;;;;20894980;28;20285;-74
2023/08/11 15:58:55;;;;;;;0.60;0.50;;;;;;;;;;20910654;28;20266;-74
2023/08/11 16:08:57;;;;;;;2.38;1.00;;;;;;;;;;20965393;28;20262;-74
2023/08/11 16:18:59;;;;;;;0.75;0.68;;;;;;;;;;20971401;28;20537;-75
2023/08/11 16:29:01;;;;;;;0.90;0.70;;;;;;;;;;20946200;28;20278;-75
2023/08/11 16:39:03;;;;;;;1.75;0.75;;;;;;;;;;20880184;28;20251;-74
2023/08/11 16:49:06;;;;;;;3.47;0.77;;;;;;;;;;20878141;28;20284;-74
2023/08/11 16:59:07;;;;;;;1.27;0.85;;;;;;;;;;20868879;28;20221;-75
2023/08/11 17:09:10;;;;;;;0.90;0.50;;;;;;;;;;20910095;28;20245;-77
2023/08/11 17:19:12;;;;;;;2.15;0.80;;;;;;;;;;20893092;28;20207;-74
2023/08/11 17:29:14;;;;;;;2.20;1.05;;;;;;;;;;20891340;28;20237;-74
2023/08/11 17:39:16;;;;;;;1.63;0.80;;;;;;;;;;20905059;28;20213;-74
2023/08/11 17:49:18;;;;;;;1.55;0.80;;;;;;;;;;20880799;28;20229;-75
2023/08/11 17:59:20;;;;;;;1.20;0.70;;;;;;;;;;20882090;28;20236;-76
2023/08/11 18:09:22;;;;;;;1.30;0.68;;;;;;;;;;20856063;28;20694;-76
2023/08/11 18:19:24;;;;;;;1.30;0.80;;;;;;;;;;20872275;28;20630;-76
2023/08/11 18:29:26;;;;;;;4.40;0.77;;;28.50;99.90;;;;;;20887328;28;20247;-75
2023/08/11 18:39:28;;;;;;;1.20;0.80;;;;;;;;;;20899565;28;20643;-75
2023/08/11 18:49:31;;;;;;;0.88;0.70;;;;;;;;;;20868953;28;20290;-75
2023/08/11 18:59:34;;;;;;;0.90;0.60;;;;;;;;;;20880191;28;20286;-74
2023/08/11 19:09:37;;;;;;;1.33;0.88;;;;;;;;;;20884927;28;20294;-75
2023/08/11 19:19:41;;;;;;;1.95;0.95;;;;;;;;;;20885542;28;20241;-73
2023/08/11 19:29:42;;;;;;;1.27;0.80;;;;;;;;;;20882222;28;20223;-75
2023/08/11 19:39:45;;;;;;;1.90;0.90;;;;;;;;;;20911584;28;20254;-75
2023/08/11 19:49:47;;;;;;;2.65;0.85;;;;;;;;;;20867386;28;21006;-75
2023/08/11 19:59:50;;;;;;;5.60;1.80;;;;;;;;;;20892014;28;20290;-74
2023/08/11 20:09:51;;;;;;;8.25;1.88;;;;;;;;;;20958594;22;20230;-75
2023/08/11 20:19:53;;;;;;;4.80;1.23;;;;;;;;;;20961069;28;20211;-76
2023/08/11 20:29:56;;;;;;;4.22;1.13;;;;;;;;;;20960101;28;20678;-75
2023/08/11 20:39:58;;;;;;;1.55;1.02;;;;;;;;;;20887330;28;20240;-75
2023/08/11 20:50:00;;;;;;;2.63;1.00;;;;;;;;;;20893008;28;20292;-75
2023/08/11 21:00:02;;;;;;;3.47;1.50;;;;;;;;;;20875606;28;20217;-75
2023/08/11 21:10:06;;;;;;;4.93;1.77;;;;;;;;;;20890192;28;20754;-75
2023/08/11 21:20:08;;;;;;;2.83;1.45;;;;;;;;;;20873763;28;20664;-75
2023/08/11 21:30:10;;;;;;;2.72;1.52;;;;;;;;;;20878111;28;20227;-76
2023/08/11 21:40:12;;;;;;;2.30;1.63;;;;;;;;;;20875713;28;20688;-75
2023/08/11 21:50:13;;;;;;;2.45;1.60;;;;;;;;;;20888086;28;20356;-75
2023/08/11 22:00:15;;;;;;;2.40;1.50;;;;;;;;;;20854546;28;20217;-75
2023/08/11 22:10:18;;;;;;;2.28;1.42;;;;;;;;;;20874543;28;20240;-75
2023/08/11 22:20:20;;;;;;;3.30;1.50;;;;;;;;;;20885268;28;20236;-75
2023/08/11 22:30:23;;;;;;;2.38;1.40;;;;;;;;;;20884058;28;20233;-75
2023/08/11 22:40:25;;;;;;;1.60;1.08;;;;;;;;;;20887810;28;20926;-75
2023/08/11 22:50:26;;;;;;;1.48;1.10;;;;;;;;;;20867091;28;20312;-75
2023/08/11 23:00:29;;;;;;;1.70;1.20;;;;;;;;;;20883792;28;20286;-75
2023/08/11 23:10:31;;;;;;;1.38;0.90;;;;;;;;;;20883371;28;20222;-75
2023/08/11 23:20:32;;;;;;;2.97;1.13;;;;;;;;;;20850178;28;20286;-75
2023/08/11 23:30:34;;;;;;;1.95;1.30;;;;;;;;;;20898759;28;20278;-75
2023/08/11 23:40:36;;;;;;;3.25;1.30;;;;;;;;;;20885636;28;20276;-75
2023/08/11 23:50:39;;;;;;;3.80;1.25;;;;;;;;;;20885010;28;20236;-75
